Derby Airport

Airport
ICAO code: 
YDBY
IATA Code: 
DRB
Summary
ICAO Region: 
APAC
Territory: 
Location: 
Derby, Western Australia
Serving: 
Derby
Elevation: 
24 ft
Coordinates: 
Aerial View: 
17° 22' 18.761" S, 123° 39' 41.58" E
Metar
Observation
YDBY 052000Z AUTO 24011KT 9999 // BKN018 BKN022 29/25 Q1004
Station
Derby Airport
Date/Time
2021-12-05 20:00:00
Wind direction
240°
Wind speed
11 kts
Lowest cloud amount
broken clouds
Temperature
29°C
Dew point
25°C
Humidity
79%
QNH
1004 hPa
Weather condition
n/a

Airport located in Derby, Western Australia.

Runways

Designator Length Width Surface Rops
5/23 1158 18 GVL No/No
11/29 1736 30 ASP No/No
Airport map: 
Aerial View: 

SKYbrary Partners:

Safety knowledge contributed by: